sensor_id;sensor_type;location;lat;lon;timestamp;pressure;altitude;pressure_sealevel;temperature;humidity
30110;BME280;14965;50.660;13.226;2023-05-03T00:01:00;95783.50;;;6.51;87.36
30110;BME280;14965;50.660;13.226;2023-05-03T00:03:27;95781.97;;;6.53;87.53
30110;BME280;14965;50.660;13.226;2023-05-03T00:05:53;95782.34;;;6.48;86.85
30110;BME280;14965;50.660;13.226;2023-05-03T00:08:19;95791.28;;;6.31;86.46
30110;BME280;14965;50.660;13.226;2023-05-03T00:10:45;95786.63;;;6.31;86.48
30110;BME280;14965;50.660;13.226;2023-05-03T00:13:10;95782.69;;;6.32;86.80
30110;BME280;14965;50.660;13.226;2023-05-03T00:15:36;95786.22;;;6.33;86.58
30110;BME280;14965;50.660;13.226;2023-05-03T00:18:02;95788.19;;;6.36;87.58
30110;BME280;14965;50.660;13.226;2023-05-03T00:20:30;95781.53;;;6.40;87.42
30110;BME280;14965;50.660;13.226;2023-05-03T00:22:56;95792.88;;;6.39;88.02
30110;BME280;14965;50.660;13.226;2023-05-03T00:25:21;95794.47;;;6.33;87.71
30110;BME280;14965;50.660;13.226;2023-05-03T00:27:47;95795.63;;;6.32;87.73
30110;BME280;14965;50.660;13.226;2023-05-03T00:30:13;95795.25;;;6.33;88.64
30110;BME280;14965;50.660;13.226;2023-05-03T00:32:39;95789.75;;;6.30;88.75
30110;BME280;14965;50.660;13.226;2023-05-03T00:35:06;95791.28;;;6.31;88.12
30110;BME280;14965;50.660;13.226;2023-05-03T00:37:35;95790.50;;;6.30;88.28
30110;BME280;14965;50.660;13.226;2023-05-03T00:40:01;95788.56;;;6.31;88.86
30110;BME280;14965;50.660;13.226;2023-05-03T00:42:27;95783.47;;;6.29;88.13
30110;BME280;14965;50.660;13.226;2023-05-03T00:44:54;95779.94;;;6.29;87.81
30110;BME280;14965;50.660;13.226;2023-05-03T00:47:20;95776.00;;;6.26;88.01
30110;BME280;14965;50.660;13.226;2023-05-03T00:49:45;95788.94;;;6.22;87.74
30110;BME280;14965;50.660;13.226;2023-05-03T00:52:11;95786.56;;;6.17;86.54
30110;BME280;14965;50.660;13.226;2023-05-03T00:54:39;95782.25;;;6.12;86.43
30110;BME280;14965;50.660;13.226;2023-05-03T00:57:05;95784.56;;;6.10;86.23
30110;BME280;14965;50.660;13.226;2023-05-03T00:59:31;95790.47;;;6.12;86.62
30110;BME280;14965;50.660;13.226;2023-05-03T01:01:57;95783.81;;;6.13;86.45
30110;BME280;14965;50.660;13.226;2023-05-03T01:04:23;95782.63;;;6.14;86.22
30110;BME280;14965;50.660;13.226;2023-05-03T01:07:02;95777.16;;;6.11;86.00
30110;BME280;14965;50.660;13.226;2023-05-03T01:09:37;95776.38;;;6.07;85.78
30110;BME280;14965;50.660;13.226;2023-05-03T01:12:19;95779.84;;;6.00;85.90
30110;BME280;14965;50.660;13.226;2023-05-03T01:14:58;95778.66;;;5.94;85.89
30110;BME280;14965;50.660;13.226;2023-05-03T01:17:28;95773.13;;;5.90;85.62
30110;BME280;14965;50.660;13.226;2023-05-03T01:20:05;95773.50;;;5.89;85.87
30110;BME280;14965;50.660;13.226;2023-05-03T01:22:38;95762.97;;;5.91;86.25
30110;BME280;14965;50.660;13.226;2023-05-03T01:25:10;95768.41;;;5.87;86.11
30110;BME280;14965;50.660;13.226;2023-05-03T01:27:38;95772.31;;;5.83;86.18
30110;BME280;14965;50.660;13.226;2023-05-03T01:30:07;95775.03;;;5.79;85.96
30110;BME280;14965;50.660;13.226;2023-05-03T01:32:53;95762.91;;;5.73;85.85
30110;BME280;14965;50.660;13.226;2023-05-03T01:35:28;95763.25;;;5.71;86.12
30110;BME280;14965;50.660;13.226;2023-05-03T01:37:56;95764.44;;;5.70;86.75
30110;BME280;14965;50.660;13.226;2023-05-03T01:40:25;95774.63;;;5.73;86.71
30110;BME280;14965;50.660;13.226;2023-05-03T01:42:54;95762.09;;;5.72;86.49
30110;BME280;14965;50.660;13.226;2023-05-03T01:45:21;95763.66;;;5.70;87.38
30110;BME280;14965;50.660;13.226;2023-05-03T01:47:47;95770.28;;;5.65;86.96
30110;BME280;14965;50.660;13.226;2023-05-03T01:50:13;95761.28;;;5.68;87.31
30110;BME280;14965;50.660;13.226;2023-05-03T01:52:39;95762.09;;;5.69;87.35
30110;BME280;14965;50.660;13.226;2023-05-03T01:55:06;95764.44;;;5.70;87.27
30110;BME280;14965;50.660;13.226;2023-05-03T01:57:33;95758.16;;;5.66;87.05
30110;BME280;14965;50.660;13.226;2023-05-03T01:59:59;95767.50;;;5.58;86.91
30110;BME280;14965;50.660;13.226;2023-05-03T02:02:25;95763.56;;;5.56;87.32
30110;BME280;14965;50.660;13.226;2023-05-03T02:04:51;95763.56;;;5.56;87.33
30110;BME280;14965;50.660;13.226;2023-05-03T02:07:16;95753.75;;;5.51;87.36
30110;BME280;14965;50.660;13.226;2023-05-03T02:09:42;95753.75;;;5.44;87.09
30110;BME280;14965;50.660;13.226;2023-05-03T02:12:08;95759.97;;;5.37;87.27
30110;BME280;14965;50.660;13.226;2023-05-03T02:14:35;95752.91;;;5.33;87.06
30110;BME280;14965;50.660;13.226;2023-05-03T02:17:01;95754.06;;;5.28;87.35
30110;BME280;14965;50.660;13.226;2023-05-03T02:19:27;95756.38;;;5.26;87.48
30110;BME280;14965;50.660;13.226;2023-05-03T02:21:53;95754.03;;;5.24;87.57
30110;BME280;14965;50.660;13.226;2023-05-03T02:24:19;95749.31;;;5.25;87.17
30110;BME280;14965;50.660;13.226;2023-05-03T02:26:45;95749.69;;;5.20;87.00
30110;BME280;14965;50.660;13.226;2023-05-03T02:29:10;95750.09;;;5.18;86.89
30110;BME280;14965;50.660;13.226;2023-05-03T02:31:37;95752.41;;;5.16;87.10
30110;BME280;14965;50.660;13.226;2023-05-03T02:34:03;95754.75;;;5.14;87.69
30110;BME280;14965;50.660;13.226;2023-05-03T02:36:29;95753.94;;;5.10;87.65
30110;BME280;14965;50.660;13.226;2023-05-03T02:38:55;95756.69;;;5.10;87.85
30110;BME280;14965;50.660;13.226;2023-05-03T02:41:21;95760.97;;;5.08;87.49
30110;BME280;14965;50.660;13.226;2023-05-03T02:43:47;95757.44;;;5.07;87.10
30110;BME280;14965;50.660;13.226;2023-05-03T02:46:12;95763.69;;;5.08;87.39
30110;BME280;14965;50.660;13.226;2023-05-03T02:48:40;95762.53;;;5.09;87.86
30110;BME280;14965;50.660;13.226;2023-05-03T02:51:05;95763.72;;;5.11;87.73
30110;BME280;14965;50.660;13.226;2023-05-03T02:53:31;95777.78;;;5.10;87.56
30110;BME280;14965;50.660;13.226;2023-05-03T02:55:57;95771.91;;;5.08;87.48
30110;BME280;14965;50.660;13.226;2023-05-03T02:58:23;95778.94;;;5.09;87.39
30110;BME280;14965;50.660;13.226;2023-05-03T03:00:49;95770.34;;;5.07;86.83
30110;BME280;14965;50.660;13.226;2023-05-03T03:03:15;95769.94;;;5.05;87.14
30110;BME280;14965;50.660;13.226;2023-05-03T03:05:42;95775.75;;;4.99;87.29
30110;BME280;14965;50.660;13.226;2023-05-03T03:08:08;95779.66;;;4.98;87.52
30110;BME280;14965;50.660;13.226;2023-05-03T03:10:33;95786.31;;;4.97;87.32
30110;BME280;14965;50.660;13.226;2023-05-03T03:12:59;95787.84;;;4.95;86.39
30110;BME280;14965;50.660;13.226;2023-05-03T03:15:25;95786.69;;;4.96;86.78
30110;BME280;14965;50.660;13.226;2023-05-03T03:17:51;95794.50;;;4.94;86.39
30110;BME280;14965;50.660;13.226;2023-05-03T03:20:17;95795.69;;;4.96;86.42
30110;BME280;14965;50.660;13.226;2023-05-03T03:22:44;95789.06;;;5.01;86.80
30110;BME280;14965;50.660;13.226;2023-05-03T03:25:10;95789.06;;;4.97;86.01
30110;BME280;14965;50.660;13.226;2023-05-03T03:27:36;95792.16;;;4.96;85.99
30110;BME280;14965;50.660;13.226;2023-05-03T03:30:02;95791.69;;;4.87;85.07
30110;BME280;14965;50.660;13.226;2023-05-03T03:32:29;95797.53;;;4.82;84.86
30110;BME280;14965;50.660;13.226;2023-05-03T03:34:54;95791.25;;;4.78;84.63
30110;BME280;14965;50.660;13.226;2023-05-03T03:37:20;95794.34;;;4.72;85.09
30110;BME280;14965;50.660;13.226;2023-05-03T03:39:47;95794.66;;;4.67;85.27
30110;BME280;14965;50.660;13.226;2023-05-03T03:42:14;95797.78;;;4.66;85.46
30110;BME280;14965;50.660;13.226;2023-05-03T03:44:40;95804.81;;;4.67;85.17
30110;BME280;14965;50.660;13.226;2023-05-03T03:47:06;95804.41;;;4.65;85.06
30110;BME280;14965;50.660;13.226;2023-05-03T03:49:32;95809.44;;;4.59;84.79
30110;BME280;14965;50.660;13.226;2023-05-03T03:51:58;95806.66;;;4.52;84.90
30110;BME280;14965;50.660;13.226;2023-05-03T03:54:24;95807.38;;;4.49;85.23
30110;BME280;14965;50.660;13.226;2023-05-03T03:56:51;95811.28;;;4.48;85.39
30110;BME280;14965;50.660;13.226;2023-05-03T03:59:17;95816.81;;;4.52;85.40
30110;BME280;14965;50.660;13.226;2023-05-03T04:01:44;95819.94;;;4.54;85.36
30110;BME280;14965;50.660;13.226;2023-05-03T04:04:10;95822.31;;;4.59;85.15
30110;BME280;14965;50.660;13.226;2023-05-03T04:06:36;95829.00;;;4.61;85.19
30110;BME280;14965;50.660;13.226;2023-05-03T04:09:02;95827.88;;;4.66;85.67
30110;BME280;14965;50.660;13.226;2023-05-03T04:11:28;95835.66;;;4.64;85.30
30110;BME280;14965;50.660;13.226;2023-05-03T04:13:55;95839.19;;;4.64;85.02
30110;BME280;14965;50.660;13.226;2023-05-03T04:16:21;95837.28;;;4.68;84.95
30110;BME280;14965;50.660;13.226;2023-05-03T04:18:47;95839.63;;;4.70;84.04
30110;BME280;14965;50.660;13.226;2023-05-03T04:21:12;95842.00;;;4.71;84.13
30110;BME280;14965;50.660;13.226;2023-05-03T04:23:38;95844.31;;;4.69;83.96
30110;BME280;14965;50.660;13.226;2023-05-03T04:26:04;95848.22;;;4.68;83.57
30110;BME280;14965;50.660;13.226;2023-05-03T04:28:30;95846.59;;;4.64;83.22
30110;BME280;14965;50.660;13.226;2023-05-03T04:30:57;95850.88;;;4.61;83.36
30110;BME280;14965;50.660;13.226;2023-05-03T04:33:25;95856.28;;;4.54;83.37
30110;BME280;14965;50.660;13.226;2023-05-03T04:35:51;95853.09;;;4.48;83.11
30110;BME280;14965;50.660;13.226;2023-05-03T04:38:17;95860.59;;;4.55;83.66
30110;BME280;14965;50.660;13.226;2023-05-03T04:40:43;95865.75;;;4.60;83.89
30110;BME280;14965;50.660;13.226;2023-05-03T04:43:09;95863.34;;;4.59;83.69
30110;BME280;14965;50.660;13.226;2023-05-03T04:45:34;95859.47;;;4.60;83.55
30110;BME280;14965;50.660;13.226;2023-05-03T04:48:02;95854.78;;;4.60;83.15
30110;BME280;14965;50.660;13.226;2023-05-03T04:50:28;95860.31;;;4.67;83.71
30110;BME280;14965;50.660;13.226;2023-05-03T04:52:54;95872.47;;;4.70;83.00
30110;BME280;14965;50.660;13.226;2023-05-03T04:55:19;95876.34;;;4.65;82.35
30110;BME280;14965;50.660;13.226;2023-05-03T04:57:45;95871.69;;;4.69;82.44
30110;BME280;14965;50.660;13.226;2023-05-03T05:00:13;95873.34;;;4.78;82.05
30110;BME280;14965;50.660;13.226;2023-05-03T05:02:38;95869.81;;;4.81;81.84
30110;BME280;14965;50.660;13.226;2023-05-03T05:05:07;95871.84;;;4.87;81.87
30110;BME280;14965;50.660;13.226;2023-05-03T05:07:33;95884.41;;;4.92;81.83
30110;BME280;14965;50.660;13.226;2023-05-03T05:09:59;95881.69;;;4.95;80.86
30110;BME280;14965;50.660;13.226;2023-05-03T05:12:26;95880.19;;;4.98;80.42
30110;BME280;14965;50.660;13.226;2023-05-03T05:14:52;95885.22;;;4.96;78.59
30110;BME280;14965;50.660;13.226;2023-05-03T05:17:18;95882.06;;;4.90;78.91
30110;BME280;14965;50.660;13.226;2023-05-03T05:19:43;95886.75;;;4.90;79.08
30110;BME280;14965;50.660;13.226;2023-05-03T05:22:11;95882.91;;;5.02;79.82
30110;BME280;14965;50.660;13.226;2023-05-03T05:24:36;95886.19;;;5.14;79.62
30110;BME280;14965;50.660;13.226;2023-05-03T05:27:02;95896.03;;;5.22;78.22
30110;BME280;14965;50.660;13.226;2023-05-03T05:29:28;95889.13;;;5.39;77.62
30110;BME280;14965;50.660;13.226;2023-05-03T05:31:54;95896.94;;;5.37;75.34
30110;BME280;14965;50.660;13.226;2023-05-03T05:34:20;95903.44;;;5.22;74.87
30110;BME280;14965;50.660;13.226;2023-05-03T05:36:46;95904.28;;;5.30;75.56
30110;BME280;14965;50.660;13.226;2023-05-03T05:39:13;95913.94;;;5.13;74.87
30110;BME280;14965;50.660;13.226;2023-05-03T05:41:39;95898.16;;;4.99;76.29
30110;BME280;14965;50.660;13.226;2023-05-03T05:44:05;95906.38;;;4.99;76.42
30110;BME280;14965;50.660;13.226;2023-05-03T05:46:30;95908.38;;;5.02;76.27
30110;BME280;14965;50.660;13.226;2023-05-03T05:48:56;95907.28;;;5.10;75.73
30110;BME280;14965;50.660;13.226;2023-05-03T05:51:22;95908.03;;;5.07;75.46
30110;BME280;14965;50.660;13.226;2023-05-03T05:53:48;95910.44;;;5.16;75.96
30110;BME280;14965;50.660;13.226;2023-05-03T05:56:15;95916.75;;;5.20;74.33
30110;BME280;14965;50.660;13.226;2023-05-03T05:58:41;95918.84;;;5.37;73.49
30110;BME280;14965;50.660;13.226;2023-05-03T06:01:10;95909.53;;;5.49;74.04
30110;BME280;14965;50.660;13.226;2023-05-03T06:03:36;95913.63;;;5.77;74.14
30110;BME280;14965;50.660;13.226;2023-05-03T06:06:01;95907.84;;;5.85;72.17
30110;BME280;14965;50.660;13.226;2023-05-03T06:08:27;95906.66;;;5.86;71.30
30110;BME280;14965;50.660;13.226;2023-05-03T06:10:53;95915.09;;;6.22;70.86
30110;BME280;14965;50.660;13.226;2023-05-03T06:13:21;95907.41;;;6.49;70.05
30110;BME280;14965;50.660;13.226;2023-05-03T06:15:47;95902.38;;;6.76;69.41
30110;BME280;14965;50.660;13.226;2023-05-03T06:18:13;95902.81;;;7.10;66.97
30110;BME280;14965;50.660;13.226;2023-05-03T06:20:38;95916.19;;;7.76;64.47
30110;BME280;14965;50.660;13.226;2023-05-03T06:23:04;95906.69;;;8.20;62.90
30110;BME280;14965;50.660;13.226;2023-05-03T06:25:30;95908.22;;;8.28;60.53
30110;BME280;14965;50.660;13.226;2023-05-03T06:27:56;95909.91;;;7.72;62.11
30110;BME280;14965;50.660;13.226;2023-05-03T06:30:23;95913.44;;;7.87;62.96
30110;BME280;14965;50.660;13.226;2023-05-03T06:32:49;95913.03;;;8.03;60.75
30110;BME280;14965;50.660;13.226;2023-05-03T06:35:15;95921.31;;;7.67;60.79
30110;BME280;14965;50.660;13.226;2023-05-03T06:37:41;95912.66;;;7.54;62.47
30110;BME280;14965;50.660;13.226;2023-05-03T06:40:08;95920.50;;;7.81;61.83
30110;BME280;14965;50.660;13.226;2023-05-03T06:42:33;95909.09;;;7.96;60.54
30110;BME280;14965;50.660;13.226;2023-05-03T06:44:59;95913.81;;;7.96;60.49
30110;BME280;14965;50.660;13.226;2023-05-03T06:47:27;95916.59;;;7.71;60.34
30110;BME280;14965;50.660;13.226;2023-05-03T06:49:52;95909.53;;;7.45;62.04
30110;BME280;14965;50.660;13.226;2023-05-03T06:52:18;95912.28;;;7.38;63.51
30110;BME280;14965;50.660;13.226;2023-05-03T06:54:44;95915.81;;;7.42;63.36
30110;BME280;14965;50.660;13.226;2023-05-03T06:57:10;95915.81;;;7.20;63.77
30110;BME280;14965;50.660;13.226;2023-05-03T06:59:36;95911.09;;;7.21;64.13
30110;BME280;14965;50.660;13.226;2023-05-03T07:02:02;95910.28;;;7.10;64.07
30110;BME280;14965;50.660;13.226;2023-05-03T07:04:29;95913.81;;;7.03;63.18
30110;BME280;14965;50.660;13.226;2023-05-03T07:06:55;95921.28;;;7.20;61.68
30110;BME280;14965;50.660;13.226;2023-05-03T07:09:21;95908.75;;;7.34;62.05
30110;BME280;14965;50.660;13.226;2023-05-03T07:11:47;95915.41;;;7.47;60.29
30110;BME280;14965;50.660;13.226;2023-05-03T07:14:13;95909.91;;;7.86;59.62
30110;BME280;14965;50.660;13.226;2023-05-03T07:16:39;95917.66;;;8.31;58.60
30110;BME280;14965;50.660;13.226;2023-05-03T07:19:04;95914.47;;;8.50;57.31
30110;BME280;14965;50.660;13.226;2023-05-03T07:21:31;95907.84;;;9.10;56.77
30110;BME280;14965;50.660;13.226;2023-05-03T07:24:00;95903.31;;;9.41;54.80
30110;BME280;14965;50.660;13.226;2023-05-03T07:26:26;95902.00;;;9.57;54.16
30110;BME280;14965;50.660;13.226;2023-05-03T07:28:52;95897.69;;;9.56;52.83
30110;BME280;14965;50.660;13.226;2023-05-03T07:31:18;95899.97;;;10.06;52.74
30110;BME280;14965;50.660;13.226;2023-05-03T07:33:45;95889.72;;;10.06;51.57
30110;BME280;14965;50.660;13.226;2023-05-03T07:36:11;95909.94;;;9.96;50.23
30110;BME280;14965;50.660;13.226;2023-05-03T07:38:38;95887.47;;;9.94;49.69
30110;BME280;14965;50.660;13.226;2023-05-03T07:41:04;95892.59;;;10.37;49.32
30110;BME280;14965;50.660;13.226;2023-05-03T07:43:30;95885.06;;;10.71;49.48
30110;BME280;14965;50.660;13.226;2023-05-03T07:45:56;95886.31;;;11.48;45.80
30110;BME280;14965;50.660;13.226;2023-05-03T07:48:22;95890.56;;;11.80;46.30
30110;BME280;14965;50.660;13.226;2023-05-03T07:50:47;95893.53;;;11.42;47.07
30110;BME280;14965;50.660;13.226;2023-05-03T07:53:13;95886.78;;;10.89;46.55
30110;BME280;14965;50.660;13.226;2023-05-03T07:55:41;95887.41;;;10.73;46.00
30110;BME280;14965;50.660;13.226;2023-05-03T07:58:06;95891.19;;;10.18;46.65
30110;BME280;14965;50.660;13.226;2023-05-03T08:00:32;95892.09;;;10.08;48.24
30110;BME280;14965;50.660;13.226;2023-05-03T08:02:58;95892.66;;;10.30;47.78
30110;BME280;14965;50.660;13.226;2023-05-03T08:05:24;95889.38;;;10.04;47.98
30110;BME280;14965;50.660;13.226;2023-05-03T08:07:50;95888.69;;;10.31;48.58
30110;BME280;14965;50.660;13.226;2023-05-03T08:10:16;95893.06;;;10.62;48.72
30110;BME280;14965;50.660;13.226;2023-05-03T08:12:43;95889.53;;;10.28;49.39
30110;BME280;14965;50.660;13.226;2023-05-03T08:15:09;95881.53;;;10.37;50.38
30110;BME280;14965;50.660;13.226;2023-05-03T08:17:40;95884.81;;;10.59;49.22
30110;BME280;14965;50.660;13.226;2023-05-03T08:20:08;95885.75;;;10.07;49.78
30110;BME280;14965;50.660;13.226;2023-05-03T08:22:34;95884.06;;;9.83;50.51
30110;BME280;14965;50.660;13.226;2023-05-03T08:24:59;95894.16;;;9.55;50.61
30110;BME280;14965;50.660;13.226;2023-05-03T08:27:25;95894.91;;;10.01;51.18
30110;BME280;14965;50.660;13.226;2023-05-03T08:29:52;95877.66;;;10.31;49.22
30110;BME280;14965;50.660;13.226;2023-05-03T08:32:18;95887.59;;;10.25;48.41
30110;BME280;14965;50.660;13.226;2023-05-03T08:34:44;95883.47;;;10.40;51.58
30110;BME280;14965;50.660;13.226;2023-05-03T08:37:10;95883.63;;;10.60;47.20
30110;BME280;14965;50.660;13.226;2023-05-03T08:39:36;95890.81;;;10.16;47.73
30110;BME280;14965;50.660;13.226;2023-05-03T08:42:06;95889.06;;;9.95;50.77
30110;BME280;14965;50.660;13.226;2023-05-03T08:44:36;95894.94;;;9.97;48.91
30110;BME280;14965;50.660;13.226;2023-05-03T08:47:08;95883.59;;;10.29;49.08
30110;BME280;14965;50.660;13.226;2023-05-03T08:49:36;95884.66;;;10.39;49.15
30110;BME280;14965;50.660;13.226;2023-05-03T08:52:05;95889.59;;;10.20;48.56
30110;BME280;14965;50.660;13.226;2023-05-03T08:54:30;95894.03;;;10.07;46.92
30110;BME280;14965;50.660;13.226;2023-05-03T08:56:56;95892.88;;;10.08;47.09
30110;BME280;14965;50.660;13.226;2023-05-03T08:59:22;95886.63;;;10.01;47.93
30110;BME280;14965;50.660;13.226;2023-05-03T09:01:48;95884.84;;;10.21;46.97
30110;BME280;14965;50.660;13.226;2023-05-03T09:04:15;95887.47;;;10.35;48.68
30110;BME280;14965;50.660;13.226;2023-05-03T09:06:41;95886.16;;;10.47;46.69
30110;BME280;14965;50.660;13.226;2023-05-03T09:09:07;95881.13;;;10.38;47.05
30110;BME280;14965;50.660;13.226;2023-05-03T09:11:34;95881.88;;;10.42;49.15
30110;BME280;14965;50.660;13.226;2023-05-03T09:14:09;95886.84;;;10.55;48.83
30110;BME280;14965;50.660;13.226;2023-05-03T09:16:36;95889.66;;;10.51;48.14
30110;BME280;14965;50.660;13.226;2023-05-03T09:19:04;95893.22;;;10.10;50.03
30110;BME280;14965;50.660;13.226;2023-05-03T09:21:31;95892.84;;;10.12;47.91
30110;BME280;14965;50.660;13.226;2023-05-03T09:23:58;95888.41;;;10.18;47.88
30110;BME280;14965;50.660;13.226;2023-05-03T09:26:29;95897.97;;;10.10;48.13
30110;BME280;14965;50.660;13.226;2023-05-03T09:28:56;95896.69;;;9.80;49.41
30110;BME280;14965;50.660;13.226;2023-05-03T09:31:22;95887.16;;;9.88;52.16
30110;BME280;14965;50.660;13.226;2023-05-03T09:33:48;95884.00;;;10.28;50.72
30110;BME280;14965;50.660;13.226;2023-05-03T09:36:14;95880.44;;;10.92;49.02
30110;BME280;14965;50.660;13.226;2023-05-03T09:38:41;95883.19;;;11.19;48.82
30110;BME280;14965;50.660;13.226;2023-05-03T09:41:07;95879.47;;;11.06;46.40
30110;BME280;14965;50.660;13.226;2023-05-03T09:43:33;95880.34;;;10.68;47.89
30110;BME280;14965;50.660;13.226;2023-05-03T09:46:08;95877.66;;;10.61;46.95
30110;BME280;14965;50.660;13.226;2023-05-03T09:48:35;95864.22;;;10.94;47.55
30110;BME280;14965;50.660;13.226;2023-05-03T09:51:02;95869.19;;;11.06;48.83
30110;BME280;14965;50.660;13.226;2023-05-03T09:53:29;95871.31;;;11.22;49.27
30110;BME280;14965;50.660;13.226;2023-05-03T09:56:01;95865.44;;;11.43;45.49
30110;BME280;14965;50.660;13.226;2023-05-03T09:58:28;95869.81;;;11.41;46.95
30110;BME280;14965;50.660;13.226;2023-05-03T10:00:54;95865.16;;;10.84;46.31
30110;BME280;14965;50.660;13.226;2023-05-03T10:03:26;95867.78;;;10.64;47.73
30110;BME280;14965;50.660;13.226;2023-05-03T10:05:54;95866.28;;;10.59;47.73
30110;BME280;14965;50.660;13.226;2023-05-03T10:08:29;95869.78;;;10.63;47.71
30110;BME280;14965;50.660;13.226;2023-05-03T10:11:01;95864.25;;;10.63;47.66
30110;BME280;14965;50.660;13.226;2023-05-03T10:13:28;95863.47;;;10.63;47.85
30110;BME280;14965;50.660;13.226;2023-05-03T10:15:59;95855.63;;;10.88;47.22
30110;BME280;14965;50.660;13.226;2023-05-03T10:18:31;95857.09;;;10.96;47.03
30110;BME280;14965;50.660;13.226;2023-05-03T10:21:04;95853.03;;;10.74;46.98
30110;BME280;14965;50.660;13.226;2023-05-03T10:23:31;95850.56;;;10.83;46.90
30110;BME280;14965;50.660;13.226;2023-05-03T10:26:14;95863.50;;;10.59;46.80
30110;BME280;14965;50.660;13.226;2023-05-03T10:28:40;95856.31;;;10.65;49.69
30110;BME280;14965;50.660;13.226;2023-05-03T10:31:45;95860.63;;;10.97;47.42
30110;BME280;14965;50.660;13.226;2023-05-03T10:34:23;95854.41;;;10.62;46.75
30110;BME280;14965;50.660;13.226;2023-05-03T10:36:51;95846.09;;;10.32;47.97
30110;BME280;14965;50.660;13.226;2023-05-03T10:39:17;95854.94;;;10.16;48.68
30110;BME280;14965;50.660;13.226;2023-05-03T10:41:55;95854.81;;;10.27;48.05
30110;BME280;14965;50.660;13.226;2023-05-03T10:44:25;95855.84;;;10.40;48.35
30110;BME280;14965;50.660;13.226;2023-05-03T10:46:53;95865.78;;;10.34;49.93
30110;BME280;14965;50.660;13.226;2023-05-03T10:49:21;95865.38;;;10.35;49.00
30110;BME280;14965;50.660;13.226;2023-05-03T10:51:48;95854.53;;;10.52;48.28
30110;BME280;14965;50.660;13.226;2023-05-03T10:54:14;95842.41;;;10.72;47.29
30110;BME280;14965;50.660;13.226;2023-05-03T10:56:50;95842.09;;;10.94;48.14
30110;BME280;14965;50.660;13.226;2023-05-03T10:59:16;95848.75;;;10.69;48.94
30110;BME280;14965;50.660;13.226;2023-05-03T11:01:44;95850.00;;;10.65;50.21
30110;BME280;14965;50.660;13.226;2023-05-03T11:04:14;95849.53;;;10.70;49.67
30110;BME280;14965;50.660;13.226;2023-05-03T11:06:42;95844.63;;;10.85;48.27
30110;BME280;14965;50.660;13.226;2023-05-03T11:09:09;95839.97;;;10.78;47.51
30110;BME280;14965;50.660;13.226;2023-05-03T11:11:38;95847.63;;;10.67;48.44
30110;BME280;14965;50.660;13.226;2023-05-03T11:14:06;95840.34;;;10.50;48.42
30110;BME280;14965;50.660;13.226;2023-05-03T11:16:33;95838.50;;;10.39;48.13
30110;BME280;14965;50.660;13.226;2023-05-03T11:19:01;95835.03;;;10.32;49.03
30110;BME280;14965;50.660;13.226;2023-05-03T11:21:27;95845.00;;;10.26;48.84
30110;BME280;14965;50.660;13.226;2023-05-03T11:23:53;95833.03;;;10.36;48.71
30110;BME280;14965;50.660;13.226;2023-05-03T11:26:19;95833.88;;;10.33;47.92
30110;BME280;14965;50.660;13.226;2023-05-03T11:28:45;95831.41;;;10.38;49.48
30110;BME280;14965;50.660;13.226;2023-05-03T11:31:12;95837.69;;;10.42;47.75
30110;BME280;14965;50.660;13.226;2023-05-03T11:33:40;95832.81;;;10.54;47.91
30110;BME280;14965;50.660;13.226;2023-05-03T11:36:07;95832.34;;;10.59;48.06
30110;BME280;14965;50.660;13.226;2023-05-03T11:38:36;95837.94;;;10.52;48.93
30110;BME280;14965;50.660;13.226;2023-05-03T11:41:10;95827.59;;;10.59;50.12
30110;BME280;14965;50.660;13.226;2023-05-03T11:43:40;95827.69;;;10.52;48.33
30110;BME280;14965;50.660;13.226;2023-05-03T11:46:06;95833.88;;;10.33;46.25
30110;BME280;14965;50.660;13.226;2023-05-03T11:48:34;95835.69;;;10.43;46.83
30110;BME280;14965;50.660;13.226;2023-05-03T11:51:06;95839.81;;;10.62;48.98
30110;BME280;14965;50.660;13.226;2023-05-03T11:53:33;95831.78;;;10.71;47.92
30110;BME280;14965;50.660;13.226;2023-05-03T11:55:59;95835.25;;;10.79;48.23
30110;BME280;14965;50.660;13.226;2023-05-03T11:58:26;95829.59;;;10.59;47.30
30110;BME280;14965;50.660;13.226;2023-05-03T12:00:54;95830.63;;;10.38;48.11
30110;BME280;14965;50.660;13.226;2023-05-03T12:03:21;95836.72;;;10.26;48.63
30110;BME280;14965;50.660;13.226;2023-05-03T12:05:51;95843.84;;;10.19;48.11
30110;BME280;14965;50.660;13.226;2023-05-03T12:08:17;95836.91;;;10.42;50.60
30110;BME280;14965;50.660;13.226;2023-05-03T12:10:44;95838.59;;;10.63;47.33
30110;BME280;14965;50.660;13.226;2023-05-03T12:13:10;95833.94;;;10.56;47.44
30110;BME280;14965;50.660;13.226;2023-05-03T12:15:38;95829.53;;;10.62;47.53
30110;BME280;14965;50.660;13.226;2023-05-03T12:18:06;95824.06;;;10.86;48.69
30110;BME280;14965;50.660;13.226;2023-05-03T12:20:33;95826.81;;;10.86;49.39
30110;BME280;14965;50.660;13.226;2023-05-03T12:23:02;95822.59;;;10.78;47.13
30110;BME280;14965;50.660;13.226;2023-05-03T12:25:29;95827.56;;;10.63;46.45
30110;BME280;14965;50.660;13.226;2023-05-03T12:27:56;95822.84;;;10.60;47.06
30110;BME280;14965;50.660;13.226;2023-05-03T12:30:23;95827.72;;;10.79;46.94
30110;BME280;14965;50.660;13.226;2023-05-03T12:32:49;95817.41;;;10.83;45.23
30110;BME280;14965;50.660;13.226;2023-05-03T12:35:17;95820.91;;;10.87;46.90
30110;BME280;14965;50.660;13.226;2023-05-03T12:37:43;95822.81;;;10.90;46.90
30110;BME280;14965;50.660;13.226;2023-05-03T12:40:12;95813.69;;;10.93;48.59
30110;BME280;14965;50.660;13.226;2023-05-03T12:42:38;95815.69;;;10.93;48.32
30110;BME280;14965;50.660;13.226;2023-05-03T12:45:05;95813.78;;;10.86;47.60
30110;BME280;14965;50.660;13.226;2023-05-03T12:47:31;95809.47;;;10.85;49.00
30110;BME280;14965;50.660;13.226;2023-05-03T12:49:57;95806.81;;;10.78;46.99
30110;BME280;14965;50.660;13.226;2023-05-03T12:52:23;95808.59;;;10.92;47.90
30110;BME280;14965;50.660;13.226;2023-05-03T12:54:49;95800.84;;;11.07;48.55